createdAt,value
2023-03-07T00:02:17.107Z,8.07
2023-03-07T00:04:47.211Z,7.07
2023-03-07T00:07:13.949Z,8.20
2023-03-07T00:09:40.678Z,7.95
2023-03-07T00:12:08.416Z,8.70
2023-03-07T00:14:35.054Z,8.35
2023-03-07T00:17:01.975Z,9.88
2023-03-07T00:19:28.475Z,9.35
2023-03-07T00:21:54.972Z,7.30
2023-03-07T00:24:21.538Z,7.50
2023-03-07T00:26:48.178Z,7.82
2023-03-07T00:29:14.672Z,7.50
2023-03-07T00:31:41.199Z,7.35
2023-03-07T00:34:07.735Z,7.72
2023-03-07T00:36:34.188Z,7.47
2023-03-07T00:39:00.676Z,6.90
2023-03-07T00:41:28.338Z,7.15
2023-03-07T00:43:55.891Z,7.13
2023-03-07T00:46:24.449Z,7.47
2023-03-07T00:48:51.358Z,7.03
2023-03-07T00:51:19.444Z,6.70
2023-03-07T00:53:45.950Z,6.95
2023-03-07T00:56:15.589Z,7.43
2023-03-07T00:58:42.364Z,6.95
2023-03-07T01:01:11.105Z,7.20
2023-03-07T01:03:37.687Z,7.80
2023-03-07T01:06:06.614Z,6.85
2023-03-07T01:08:33.493Z,6.82
2023-03-07T01:11:02.126Z,7.43
2023-03-07T01:13:28.658Z,7.57
2023-03-07T01:15:55.506Z,7.28
2023-03-07T01:18:22.243Z,7.63
2023-03-07T01:20:48.729Z,7.68
2023-03-07T01:23:15.240Z,7.63
2023-03-07T01:25:43.305Z,7.45
2023-03-07T01:28:13.895Z,7.43
2023-03-07T01:30:41.126Z,6.55
2023-03-07T01:33:09.152Z,6.32
2023-03-07T01:35:39.757Z,6.68
2023-03-07T01:38:06.928Z,6.93
2023-03-07T01:40:33.842Z,6.25
2023-03-07T01:43:23.374Z,7.13
2023-03-07T01:45:49.901Z,7.00
2023-03-07T01:48:17.031Z,6.20
2023-03-07T01:50:44.567Z,6.75
2023-03-07T01:53:11.662Z,7.63
2023-03-07T01:55:39.009Z,6.80
2023-03-07T01:58:15.076Z,6.43
2023-03-07T02:00:44.065Z,6.10
2023-03-07T02:03:10.455Z,7.07
2023-03-07T02:05:41.139Z,6.47
2023-03-07T02:08:10.664Z,7.25
2023-03-07T02:10:38.815Z,6.45
2023-03-07T02:13:05.451Z,7.47
2023-03-07T02:15:35.028Z,7.38
2023-03-07T02:18:02.395Z,6.75
2023-03-07T02:20:48.674Z,6.82
2023-03-07T02:23:49.823Z,7.03
2023-03-07T02:26:21.287Z,5.68
2023-03-07T02:28:48.694Z,6.72
2023-03-07T02:31:15.322Z,6.43
2023-03-07T02:33:41.907Z,6.40
2023-03-07T02:36:13.117Z,6.70
2023-03-07T02:38:42.919Z,6.78
2023-03-07T02:41:11.665Z,6.70
2023-03-07T02:43:38.335Z,6.70
2023-03-07T02:46:05.350Z,6.90
2023-03-07T02:48:31.843Z,7.07
2023-03-07T02:50:58.297Z,6.28
2023-03-07T02:53:25.071Z,6.45
2023-03-07T02:55:51.576Z,6.93
2023-03-07T02:58:18.073Z,6.65
2023-03-07T03:00:44.583Z,6.45
2023-03-07T03:03:12.063Z,6.28
2023-03-07T03:05:38.573Z,7.00
2023-03-07T03:08:05.458Z,6.43
2023-03-07T03:10:32.198Z,6.85
2023-03-07T03:12:58.689Z,5.72
2023-03-07T03:15:25.169Z,6.30
2023-03-07T03:17:53.854Z,6.43
2023-03-07T03:20:20.320Z,6.32
2023-03-07T03:22:46.862Z,6.57
2023-03-07T03:25:14.753Z,6.90
2023-03-07T03:27:41.898Z,7.35
2023-03-07T03:30:10.546Z,7.20
2023-03-07T03:32:38.158Z,6.90
2023-03-07T03:35:05.662Z,6.40
2023-03-07T03:37:32.904Z,7.47
2023-03-07T03:39:59.459Z,7.40
2023-03-07T03:42:26.019Z,7.85
2023-03-07T03:44:52.610Z,6.55
2023-03-07T03:47:19.070Z,7.68
2023-03-07T03:49:45.520Z,7.03
2023-03-07T03:52:12.117Z,7.43
2023-03-07T03:54:38.770Z,6.85
2023-03-07T03:57:05.281Z,7.47
2023-03-07T03:59:31.807Z,7.10
2023-03-07T04:01:58.441Z,7.57
2023-03-07T04:04:25.006Z,6.90
2023-03-07T04:06:51.456Z,7.43
2023-03-07T04:09:17.958Z,7.60
2023-03-07T04:11:44.452Z,7.40
2023-03-07T04:14:11.305Z,7.30
2023-03-07T04:16:37.838Z,6.90
2023-03-07T04:19:04.346Z,7.63
2023-03-07T04:21:30.889Z,6.40
2023-03-07T04:23:58.415Z,7.57
2023-03-07T04:26:25.048Z,8.02
2023-03-07T04:28:51.871Z,7.80
2023-03-07T04:31:24.670Z,7.20
2023-03-07T04:33:52.304Z,7.25
2023-03-07T04:36:19.524Z,7.80
2023-03-07T04:38:47.582Z,8.18
2023-03-07T04:41:16.255Z,8.07
2023-03-07T04:43:43.390Z,7.50
2023-03-07T04:46:11.297Z,7.85
2023-03-07T04:48:37.840Z,7.63
2023-03-07T04:51:05.213Z,7.25
2023-03-07T04:53:31.758Z,7.65
2023-03-07T04:56:04.911Z,7.18
2023-03-07T04:58:32.581Z,8.20
2023-03-07T05:01:01.165Z,7.43
2023-03-07T05:03:28.256Z,7.78
2023-03-07T05:05:55.238Z,8.05
2023-03-07T05:08:23.060Z,8.27
2023-03-07T05:10:49.617Z,7.55
2023-03-07T05:13:16.152Z,7.47
2023-03-07T05:15:42.865Z,8.00
2023-03-07T05:18:09.433Z,7.82
2023-03-07T05:20:36.181Z,7.70
2023-03-07T05:23:02.737Z,8.07
2023-03-07T05:25:29.306Z,8.50
2023-03-07T05:27:55.849Z,7.78
2023-03-07T05:30:22.384Z,7.80
2023-03-07T05:32:49.052Z,8.15
2023-03-07T05:35:16.180Z,8.23
2023-03-07T05:37:42.715Z,7.93
2023-03-07T05:40:10.606Z,8.30
2023-03-07T05:42:37.515Z,8.65
2023-03-07T05:45:05.715Z,8.45
2023-03-07T05:47:32.563Z,9.00
2023-03-07T05:49:59.261Z,9.32
2023-03-07T05:52:26.592Z,8.25
2023-03-07T05:54:53.101Z,8.60
2023-03-07T05:57:19.855Z,7.97
2023-03-07T05:59:46.407Z,8.90
2023-03-07T06:02:13.195Z,8.82
2023-03-07T06:04:39.704Z,8.38
2023-03-07T06:07:06.198Z,8.25
2023-03-07T06:09:32.706Z,8.02
2023-03-07T06:11:59.264Z,8.50
2023-03-07T06:14:28.676Z,8.13
2023-03-07T06:16:55.241Z,9.05
2023-03-07T06:19:22.048Z,8.27
2023-03-07T06:21:48.573Z,9.10
2023-03-07T06:24:15.098Z,8.77
2023-03-07T06:26:41.588Z,8.70
2023-03-07T06:29:08.047Z,8.50
2023-03-07T06:31:34.834Z,9.18
2023-03-07T06:34:01.417Z,8.40
2023-03-07T06:36:27.926Z,7.38
2023-03-07T06:38:54.616Z,7.47
2023-03-07T06:41:21.195Z,9.13
2023-03-07T06:43:52.238Z,9.20
2023-03-07T06:46:20.504Z,10.05
2023-03-07T06:48:47.113Z,8.90
2023-03-07T06:51:13.971Z,9.32
2023-03-07T06:53:41.278Z,9.88
2023-03-07T06:56:07.845Z,9.65
2023-03-07T06:58:34.531Z,9.55
2023-03-07T07:01:01.079Z,9.43
2023-03-07T07:03:27.627Z,9.60
2023-03-07T07:05:54.119Z,10.85
2023-03-07T07:08:20.712Z,10.55
2023-03-07T07:10:47.192Z,10.52
2023-03-07T07:13:13.831Z,10.20
2023-03-07T07:15:40.409Z,11.07
2023-03-07T07:18:06.903Z,9.63
2023-03-07T07:20:33.434Z,9.43
2023-03-07T07:23:00.114Z,10.40
2023-03-07T07:25:26.648Z,9.20
2023-03-07T07:27:53.143Z,9.10
2023-03-07T07:30:19.603Z,9.48
2023-03-07T07:32:46.188Z,10.10
2023-03-07T07:35:12.849Z,10.30
2023-03-07T07:37:40.327Z,9.77
2023-03-07T07:40:10.157Z,9.15
2023-03-07T07:42:36.690Z,11.07
2023-03-07T07:45:03.663Z,9.23
2023-03-07T07:47:30.186Z,10.32
2023-03-07T07:49:56.701Z,10.52
2023-03-07T07:52:23.162Z,10.65
2023-03-07T07:54:49.834Z,11.02
2023-03-07T07:57:16.340Z,10.77
2023-03-07T07:59:42.808Z,11.60
2023-03-07T08:02:13.787Z,10.63
2023-03-07T08:04:40.606Z,11.35
2023-03-07T08:07:07.976Z,10.68
2023-03-07T08:09:35.564Z,11.23
2023-03-07T08:12:02.220Z,10.40
2023-03-07T08:14:28.689Z,11.57
2023-03-07T08:16:55.218Z,12.93
2023-03-07T08:19:21.738Z,11.55
2023-03-07T08:21:48.257Z,12.90
2023-03-07T08:24:14.752Z,13.23
2023-03-07T08:26:41.232Z,12.32
2023-03-07T08:29:07.786Z,12.82
2023-03-07T08:31:34.340Z,12.65
2023-03-07T08:34:01.330Z,14.07
2023-03-07T08:36:27.860Z,14.95
2023-03-07T08:38:54.401Z,14.80
2023-03-07T08:41:23.067Z,13.98
2023-03-07T08:43:50.059Z,13.70
2023-03-07T08:46:17.124Z,12.60
2023-03-07T08:48:43.962Z,13.48
2023-03-07T08:51:15.030Z,13.77
2023-03-07T08:53:46.160Z,11.55
2023-03-07T08:56:15.376Z,11.57
2023-03-07T08:58:42.044Z,10.38
2023-03-07T09:01:09.125Z,10.80
2023-03-07T09:03:36.441Z,8.80
2023-03-07T09:06:04.162Z,7.22
2023-03-07T09:08:31.007Z,7.00
2023-03-07T09:11:03.247Z,6.80
2023-03-07T09:13:29.779Z,6.63
2023-03-07T09:15:56.289Z,6.65
2023-03-07T09:18:23.003Z,6.75
2023-03-07T09:20:49.513Z,6.80
2023-03-07T09:23:16.003Z,6.57
2023-03-07T09:25:44.439Z,6.15
2023-03-07T09:28:11.019Z,6.88
2023-03-07T09:30:37.838Z,6.85
2023-03-07T09:33:04.299Z,6.65
2023-03-07T09:35:30.971Z,6.30
2023-03-07T09:37:57.528Z,7.32
2023-03-07T09:40:27.101Z,6.82
2023-03-07T09:43:18.601Z,7.35
2023-03-07T09:46:07.973Z,7.53
2023-03-07T09:48:59.680Z,7.68
2023-03-07T09:51:26.977Z,7.68
2023-03-07T09:54:00.020Z,7.07
2023-03-07T09:56:43.274Z,7.80
2023-03-07T09:59:33.933Z,7.68
2023-03-07T10:02:32.988Z,7.50
2023-03-07T10:05:08.620Z,7.72
2023-03-07T10:07:36.049Z,7.03
2023-03-07T10:10:10.586Z,7.63
2023-03-07T10:13:01.567Z,8.18
2023-03-07T10:15:42.555Z,8.05
2023-03-07T10:18:15.052Z,8.23
2023-03-07T10:21:04.725Z,7.82
2023-03-07T10:24:01.932Z,7.28
2023-03-07T10:26:57.553Z,7.22
2023-03-07T10:29:27.524Z,7.32
2023-03-07T10:32:15.061Z,6.93
2023-03-07T10:34:41.766Z,7.75
2023-03-07T10:37:19.314Z,7.07
2023-03-07T10:39:53.022Z,7.57
2023-03-07T10:42:21.692Z,7.38
2023-03-07T10:44:50.039Z,7.65
2023-03-07T10:47:22.436Z,7.55
2023-03-07T10:49:51.280Z,7.80
2023-03-07T10:52:46.287Z,6.97
2023-03-07T10:55:43.437Z,7.20
2023-03-07T10:58:19.618Z,8.00
2023-03-07T11:01:03.149Z,9.07
2023-03-07T11:03:49.623Z,7.28
2023-03-07T11:07:02.392Z,8.07
2023-03-07T11:09:34.289Z,7.40
2023-03-07T11:12:13.523Z,7.55
2023-03-07T11:15:10.830Z,7.88
2023-03-07T11:17:49.836Z,7.93
2023-03-07T11:20:48.406Z,7.78
2023-03-07T11:23:14.884Z,6.72
2023-03-07T11:25:41.433Z,7.35
2023-03-07T11:28:37.178Z,7.15
2023-03-07T11:31:06.700Z,7.70
2023-03-07T11:33:59.641Z,7.93
2023-03-07T11:36:35.594Z,7.20
2023-03-07T11:39:21.591Z,12.75
2023-03-07T11:41:55.551Z,10.73
2023-03-07T11:44:34.823Z,10.48
2023-03-07T11:47:29.054Z,13.85
2023-03-07T11:50:15.028Z,7.93
2023-03-07T11:52:50.354Z,7.57
2023-03-07T11:55:38.095Z,7.40
2023-03-07T11:58:46.374Z,7.32
2023-03-07T12:01:34.517Z,7.75
2023-03-07T12:04:22.134Z,6.97
2023-03-07T12:07:20.080Z,7.55
2023-03-07T12:10:11.290Z,8.02
2023-03-07T12:12:46.899Z,7.10
2023-03-07T12:15:32.123Z,7.95
2023-03-07T12:18:08.949Z,7.35
2023-03-07T12:20:44.356Z,7.82
2023-03-07T12:23:36.233Z,7.30
2023-03-07T12:26:12.363Z,15.60
2023-03-07T12:29:13.144Z,13.65
2023-03-07T12:31:47.281Z,7.95
2023-03-07T12:34:28.537Z,7.65
2023-03-07T12:37:05.104Z,7.05
2023-03-07T12:39:49.197Z,7.13
2023-03-07T12:42:38.845Z,6.95
2023-03-07T12:45:16.412Z,7.20
2023-03-07T12:47:51.958Z,12.20
2023-03-07T12:50:46.001Z,8.25
2023-03-07T12:53:33.394Z,7.75
2023-03-07T12:56:22.143Z,7.28
2023-03-07T12:59:00.637Z,7.70
2023-03-07T13:01:31.860Z,7.72
2023-03-07T13:04:13.824Z,8.85
2023-03-07T13:06:42.215Z,8.27
2023-03-07T13:09:24.867Z,22.15
2023-03-07T13:12:09.905Z,9.30
2023-03-07T13:14:40.430Z,8.05
2023-03-07T13:17:11.883Z,7.47
2023-03-07T13:19:39.234Z,7.47
2023-03-07T13:22:14.865Z,7.43
2023-03-07T13:24:42.936Z,7.97
2023-03-07T13:27:15.330Z,8.32
2023-03-07T13:30:04.044Z,7.25
2023-03-07T13:32:51.935Z,7.35
2023-03-07T13:35:24.369Z,7.80
2023-03-07T13:38:06.202Z,7.87
2023-03-07T13:40:35.658Z,7.65
2023-03-07T13:43:04.212Z,7.15
2023-03-07T13:45:39.972Z,8.10
2023-03-07T13:48:36.004Z,8.70
2023-03-07T13:51:09.425Z,8.45
2023-03-07T13:56:15.764Z,7.57
2023-03-07T13:59:04.019Z,8.15
2023-03-07T14:01:45.869Z,10.00
2023-03-07T14:04:39.538Z,8.65
2023-03-07T14:07:21.320Z,8.57
2023-03-07T14:09:53.569Z,10.02
2023-03-07T14:13:05.589Z,9.23
2023-03-07T14:16:03.293Z,8.43
2023-03-07T14:18:57.258Z,8.40
2023-03-07T14:24:01.444Z,8.30
2023-03-07T14:26:33.457Z,8.48
2023-03-07T14:29:00.005Z,9.23
2023-03-07T14:31:36.677Z,8.98
2023-03-07T14:34:21.564Z,8.52
2023-03-07T14:37:01.055Z,9.05
2023-03-07T14:39:43.644Z,8.32
2023-03-07T14:42:40.174Z,9.02
2023-03-07T14:45:29.435Z,8.65
2023-03-07T14:48:19.509Z,8.80
2023-03-07T14:50:47.030Z,9.07
2023-03-07T14:53:19.784Z,8.45
2023-03-07T14:55:48.900Z,8.70
2023-03-07T14:58:25.702Z,9.43
2023-03-07T15:01:11.001Z,8.43
2023-03-07T15:03:45.835Z,8.65
2023-03-07T15:06:15.513Z,8.35
2023-03-07T15:08:42.117Z,8.27
2023-03-07T15:11:14.538Z,7.80
2023-03-07T15:13:48.213Z,8.68
2023-03-07T15:16:32.391Z,8.38
2023-03-07T15:19:19.256Z,8.95
2023-03-07T15:21:51.842Z,8.45
2023-03-07T15:24:31.046Z,8.40
2023-03-07T15:26:59.448Z,9.00
2023-03-07T15:29:29.816Z,8.10
2023-03-07T15:31:59.223Z,7.88
2023-03-07T15:34:30.571Z,8.25
2023-03-07T15:37:32.545Z,7.75
2023-03-07T15:40:02.028Z,7.97
2023-03-07T15:42:29.485Z,8.13
2023-03-07T15:45:00.181Z,8.77
2023-03-07T15:47:28.749Z,8.25
2023-03-07T15:50:04.339Z,7.82
2023-03-07T15:52:36.865Z,8.18
2023-03-07T15:55:16.666Z,7.65
2023-03-07T15:57:48.997Z,8.25
2023-03-07T16:00:27.850Z,7.85
2023-03-07T16:03:17.184Z,8.07
2023-03-07T16:05:43.991Z,7.57
2023-03-07T16:08:15.583Z,9.05
2023-03-07T16:11:01.176Z,7.75
2023-03-07T16:13:40.615Z,8.90
2023-03-07T16:16:13.465Z,8.52
2023-03-07T16:18:41.744Z,8.48
2023-03-07T16:21:13.054Z,8.30
2023-03-07T16:23:40.094Z,9.40
2023-03-07T16:26:07.654Z,8.13
2023-03-07T16:28:34.820Z,8.90
2023-03-07T16:31:01.411Z,8.75
2023-03-07T16:33:27.921Z,8.95
2023-03-07T16:35:54.601Z,8.25
2023-03-07T16:38:21.472Z,10.52
2023-03-07T16:40:48.083Z,8.60
2023-03-07T16:43:36.328Z,8.82
2023-03-07T16:46:05.986Z,8.00
2023-03-07T16:48:32.893Z,8.63
2023-03-07T16:50:59.458Z,8.50
2023-03-07T16:53:26.718Z,9.07
2023-03-07T16:55:55.953Z,9.15
2023-03-07T16:58:27.516Z,9.40
2023-03-07T17:00:54.355Z,8.95
2023-03-07T17:03:20.834Z,8.20
2023-03-07T17:05:47.334Z,8.45
2023-03-07T17:08:13.791Z,9.95
2023-03-07T17:10:42.559Z,9.18
2023-03-07T17:13:17.564Z,8.43
2023-03-07T17:15:45.481Z,8.50
2023-03-07T17:18:12.173Z,9.13
2023-03-07T17:20:38.840Z,8.38
2023-03-07T17:23:05.328Z,8.95
2023-03-07T17:25:31.977Z,9.63
2023-03-07T17:28:02.419Z,10.00
2023-03-07T17:30:30.702Z,8.55
2023-03-07T17:32:58.041Z,8.85
2023-03-07T17:35:24.570Z,10.45
2023-03-07T17:37:53.054Z,9.13
2023-03-07T17:40:21.325Z,9.13
2023-03-07T17:42:51.925Z,9.38
2023-03-07T17:45:18.828Z,9.38
2023-03-07T17:47:49.323Z,8.95
2023-03-07T17:50:15.875Z,8.77
2023-03-07T17:52:43.146Z,9.55
2023-03-07T17:55:10.348Z,10.02
2023-03-07T17:57:36.963Z,8.73
2023-03-07T18:00:09.276Z,8.68
2023-03-07T18:02:35.755Z,9.23
2023-03-07T18:05:02.223Z,8.98
2023-03-07T18:07:28.777Z,9.35
2023-03-07T18:10:07.135Z,8.85
2023-03-07T18:12:34.462Z,8.85
2023-03-07T18:15:00.956Z,8.88
2023-03-07T18:17:31.388Z,8.68
2023-03-07T18:20:10.924Z,8.27
2023-03-07T18:22:38.284Z,9.60
2023-03-07T18:25:07.228Z,8.98
2023-03-07T18:27:33.767Z,8.18
2023-03-07T18:30:00.286Z,9.10
2023-03-07T18:32:29.176Z,8.65
2023-03-07T18:34:55.886Z,8.48
2023-03-07T18:37:22.747Z,9.10
2023-03-07T18:39:49.186Z,8.45
2023-03-07T18:42:15.684Z,9.27
2023-03-07T18:44:42.250Z,8.73
2023-03-07T18:47:10.464Z,8.77
2023-03-07T18:49:38.486Z,8.38
2023-03-07T18:52:05.006Z,8.40
2023-03-07T18:54:31.689Z,9.00
2023-03-07T18:56:58.153Z,8.63
2023-03-07T18:59:24.607Z,8.38
2023-03-07T19:01:51.221Z,9.32
2023-03-07T19:04:18.229Z,8.57
2023-03-07T19:06:47.480Z,9.70
2023-03-07T19:09:16.346Z,8.95
2023-03-07T19:11:43.212Z,8.07
2023-03-07T19:14:10.031Z,8.60
2023-03-07T19:16:36.613Z,9.60
2023-03-07T19:19:03.872Z,8.57
2023-03-07T19:21:31.180Z,8.98
2023-03-07T19:23:59.403Z,8.57
2023-03-07T19:26:26.219Z,9.32
2023-03-07T19:28:54.835Z,9.57
2023-03-07T19:31:27.158Z,8.68
2023-03-07T19:33:54.108Z,9.25
2023-03-07T19:36:22.834Z,8.43
2023-03-07T19:38:50.932Z,8.95
2023-03-07T19:41:21.336Z,9.52
2023-03-07T19:43:48.164Z,10.85
2023-03-07T19:46:16.323Z,9.60
2023-03-07T19:48:44.170Z,9.95
2023-03-07T19:51:16.645Z,9.95
2023-03-07T19:53:44.249Z,10.68
2023-03-07T19:56:18.396Z,9.90
2023-03-07T19:58:44.959Z,9.20
2023-03-07T20:01:15.320Z,10.20
2023-03-07T20:03:42.237Z,10.00
2023-03-07T20:06:14.337Z,10.57
2023-03-07T20:08:41.008Z,10.35
2023-03-07T20:11:27.212Z,10.80
2023-03-07T20:13:55.965Z,9.75
2023-03-07T20:16:23.484Z,10.20
2023-03-07T20:18:51.781Z,9.32
2023-03-07T20:21:19.720Z,10.05
2023-03-07T20:23:48.325Z,10.02
2023-03-07T20:26:21.559Z,9.77
2023-03-07T20:28:48.655Z,10.07
2023-03-07T20:31:18.749Z,10.23
2023-03-07T20:33:46.811Z,9.93
2023-03-07T20:36:18.736Z,9.65
2023-03-07T20:38:50.175Z,9.65
2023-03-07T20:41:19.692Z,9.63
2023-03-07T20:43:47.854Z,9.90
2023-03-07T20:46:16.842Z,9.85
2023-03-07T20:48:44.558Z,9.95
2023-03-07T20:51:18.474Z,9.02
2023-03-07T20:53:46.358Z,9.77
2023-03-07T20:56:12.833Z,9.93
2023-03-07T20:58:39.633Z,9.50
2023-03-07T21:01:06.323Z,10.13
2023-03-07T21:03:33.892Z,9.50
2023-03-07T21:06:02.476Z,10.13
2023-03-07T21:08:30.875Z,10.73
2023-03-07T21:10:59.152Z,9.85
2023-03-07T21:13:26.145Z,9.85
2023-03-07T21:15:58.838Z,10.13
2023-03-07T21:18:26.195Z,9.57
2023-03-07T21:20:53.026Z,9.88
2023-03-07T21:23:19.547Z,10.20
2023-03-07T21:25:46.720Z,9.27
2023-03-07T21:28:13.726Z,10.25
2023-03-07T21:30:40.310Z,8.80
2023-03-07T21:33:07.036Z,9.98
2023-03-07T21:35:38.720Z,9.65
2023-03-07T21:38:05.893Z,9.38
2023-03-07T21:40:32.793Z,10.48
2023-03-07T21:42:59.330Z,10.35
2023-03-07T21:45:25.837Z,9.52
2023-03-07T21:47:54.271Z,10.82
2023-03-07T21:50:21.014Z,11.05
2023-03-07T21:52:47.598Z,9.77
2023-03-07T21:55:14.149Z,10.32
2023-03-07T21:57:40.678Z,10.73
2023-03-07T22:00:09.140Z,9.68
2023-03-07T22:02:38.489Z,9.80
2023-03-07T22:05:05.439Z,10.10
2023-03-07T22:07:32.019Z,11.18
2023-03-07T22:09:58.623Z,10.75
2023-03-07T22:12:25.131Z,8.82
2023-03-07T22:14:51.641Z,10.65
2023-03-07T22:17:18.213Z,10.73
2023-03-07T22:19:44.695Z,10.57
2023-03-07T22:22:11.268Z,10.98
2023-03-07T22:24:37.763Z,10.18
2023-03-07T22:27:04.341Z,10.15
2023-03-07T22:29:30.919Z,11.68
2023-03-07T22:31:57.434Z,11.20
2023-03-07T22:34:23.981Z,10.70
2023-03-07T22:36:51.302Z,10.45
2023-03-07T22:39:17.829Z,9.70
2023-03-07T22:41:44.287Z,10.23
2023-03-07T22:44:11.240Z,10.25
2023-03-07T22:46:37.847Z,10.27
2023-03-07T22:49:04.358Z,9.27
2023-03-07T22:51:30.846Z,10.60
2023-03-07T22:53:57.362Z,10.95
2023-03-07T22:56:26.788Z,10.13
2023-03-07T22:58:53.703Z,9.55
2023-03-07T23:01:22.466Z,10.63
2023-03-07T23:03:50.622Z,10.75
2023-03-07T23:06:18.105Z,11.05
2023-03-07T23:08:49.970Z,11.07
2023-03-07T23:11:18.081Z,10.45
2023-03-07T23:13:45.089Z,9.90
2023-03-07T23:16:14.889Z,11.27
2023-03-07T23:18:42.585Z,10.73
2023-03-07T23:21:15.224Z,10.52
2023-03-07T23:23:41.786Z,10.83
2023-03-07T23:26:08.341Z,10.32
2023-03-07T23:28:35.137Z,11.50
2023-03-07T23:31:01.698Z,11.50
2023-03-07T23:33:28.269Z,9.68
2023-03-07T23:35:59.201Z,10.02
2023-03-07T23:38:25.693Z,10.45
2023-03-07T23:40:52.257Z,10.07
2023-03-07T23:43:18.735Z,10.55
2023-03-07T23:45:45.178Z,10.57
2023-03-07T23:48:11.709Z,10.93
2023-03-07T23:50:38.231Z,10.80
2023-03-07T23:53:04.694Z,10.27
2023-03-07T23:55:31.213Z,10.10
2023-03-07T23:57:57.697Z,10.68
